Terminal Aerodrome Forecast
Issued by NWS

Home | Current Version | Previous Version | Text Only | Print | Product List | Glossary On
Versions: 1 2 3 4 5 6 7 8 9 10 11 12 13 14 15
000
FTUS46 KLOX 281125
TAFPMD
TAF
KPMD 281125Z 2812/2912 VRB06KT P6SM SCT250
     FM281900 25008KT P6SM SCT070 SCT150
     FM282200 25017G25KT P6SM SCT050 SCT120
     FM290400 23012KT P6SM SCT150=

USA.gov is the U.S. government's official web portal to all federal, state and local government web resources and services.